Time;durP1;ratioP1;P1;durP2;ratioP2;P2;SDS_P1;SDS_P2;PMS_P1;PMS_P2;Temp;Humidity;BMP_temperature;BMP_pressure;BME280_temperature;BME280_humidity;BME280_pressure;Samples;Min_cycle;Max_cycle;Signal;HPM_P1;HPM_P2
2022/12/04 00:04:53;;;;;;;29.10;23.73;;;6.40;99.90;;;;;;10396503;28;20234;-80
2022/12/04 00:09:55;;;;;;;26.27;22.43;;;6.40;99.90;;;;;;10377330;28;20285;-79
2022/12/04 00:14:57;;;;;;;24.63;21.33;;;6.40;99.90;;;;;;10377722;28;20222;-78
2022/12/04 00:20:01;;;;;;;26.40;23.40;;;6.40;99.90;;;;;;10361567;28;20245;-80
2022/12/04 00:25:03;;;;;;;26.67;23.00;;;6.40;99.90;;;;;;10403734;28;20222;-81
2022/12/04 00:30:06;;;;;;;26.10;23.07;;;6.40;99.90;;;;;;10385338;28;20362;-81
2022/12/04 00:35:13;;;;;;;25.23;22.07;;;6.40;99.90;;;;;;10407883;28;20542;-81
2022/12/04 00:40:15;;;;;;;26.03;23.40;;;6.40;99.90;;;;;;10365875;28;20248;-80
2022/12/04 00:45:17;;;;;;;25.27;22.57;;;6.40;99.90;;;;;;10408694;28;20220;-80
2022/12/04 00:50:21;;;;;;;25.00;22.07;;;6.40;99.90;;;;;;10388873;28;20194;-80
2022/12/04 00:55:23;;;;;;;25.40;22.70;;;6.40;99.90;;;;;;10387509;28;20327;-81
2022/12/04 01:00:25;;;;;;;22.37;20.03;;;6.40;99.90;;;;;;10383398;28;20218;-81
2022/12/04 01:05:29;;;;;;;23.20;20.70;;;6.50;99.90;;;;;;10400219;28;20313;-82
2022/12/04 01:10:31;;;;;;;38.07;30.27;;;6.40;99.90;;;;;;10382613;28;20718;-81
2022/12/04 01:15:33;;;;;;;25.30;22.57;;;6.40;99.90;;;;;;10399983;28;20557;-81
2022/12/04 01:20:37;;;;;;;25.60;20.87;;;6.40;99.90;;;;;;10389886;28;20227;-81
2022/12/04 01:25:39;;;;;;;22.63;19.97;;;6.30;99.90;;;;;;10398853;28;20214;-80
2022/12/04 01:30:41;;;;;;;24.90;20.93;;;6.30;99.90;;;;;;10384875;28;20789;-81
2022/12/04 01:35:52;;;;;;;20.80;18.47;;;6.30;99.90;;;;;;10402557;28;20255;-79
2022/12/04 01:40:55;;;;;;;24.63;19.20;;;6.30;99.90;;;;;;10399891;28;20245;-79
2022/12/04 01:45:59;;;;;;;23.97;20.40;;;6.20;99.90;;;;;;10423730;28;20283;-81
2022/12/04 01:51:06;;;;;;;24.20;20.80;;;6.20;99.90;;;;;;10393636;28;20203;-80
2022/12/04 01:56:09;;;;;;;22.57;20.13;;;6.20;99.90;;;;;;10388612;28;20759;-81
2022/12/04 02:01:12;;;;;;;21.03;18.77;;;6.30;99.90;;;;;;10386930;28;20209;-81
2022/12/04 02:06:15;;;;;;;20.57;18.47;;;6.30;99.90;;;;;;10403847;28;20257;-81
2022/12/04 02:11:29;;;;;;;21.37;19.17;;;6.30;99.90;;;;;;10391307;28;20199;-81
2022/12/04 02:16:41;;;;;;;22.40;19.70;;;6.30;99.90;;;;;;10403786;28;20226;-80
2022/12/04 02:21:47;;;;;;;22.37;20.00;;;6.40;99.90;;;;;;10387831;28;20286;-81
2022/12/04 02:26:53;;;;;;;22.20;19.90;;;6.40;99.90;;;;;;10386318;28;20226;-80
2022/12/04 02:32:01;;;;;;;22.60;19.80;;;6.40;99.90;;;;;;10390789;28;20543;-81
2022/12/04 02:37:09;;;;;;;26.83;23.10;;;6.40;99.90;;;;;;10410399;28;20271;-80
2022/12/04 02:42:16;;;;;;;23.90;20.33;;;6.40;99.90;;;;;;10390534;28;20676;-80
2022/12/04 02:47:23;;;;;;;24.10;20.73;;;6.50;99.90;;;;;;10409436;28;20683;-80
2022/12/04 02:52:31;;;;;;;22.57;20.30;;;6.50;99.90;;;;;;10421943;28;20587;-80
2022/12/04 02:57:36;;;;;;;23.10;20.67;;;6.50;99.90;;;;;;10402820;28;20662;-80
2022/12/04 03:02:53;;;;;;;22.90;20.40;;;6.40;99.90;;;;;;10387007;28;20245;-78
2022/12/04 03:07:59;;;;;;;23.83;21.23;;;6.40;99.90;;;;;;10411285;28;20190;-79
2022/12/04 03:13:07;;;;;;;23.50;21.00;;;6.40;99.90;;;;;;10383393;28;20225;-80
2022/12/04 03:18:16;;;;;;;25.23;22.63;;;6.40;99.90;;;;;;10374435;28;20211;-80
2022/12/04 03:23:22;;;;;;;24.33;21.40;;;6.40;99.90;;;;;;10413792;28;20363;-81
2022/12/04 03:28:31;;;;;;;25.13;22.43;;;6.50;99.90;;;;;;10423616;28;20204;-80
2022/12/04 03:33:40;;;;;;;24.57;22.07;;;6.50;99.90;;;;;;10385921;28;20580;-80
2022/12/04 03:38:50;;;;;;;26.77;22.60;;;6.50;99.90;;;;;;10433644;28;20263;-80
2022/12/04 03:43:56;;;;;;;26.27;23.57;;;6.50;99.90;;;;;;10390533;28;20268;-80
2022/12/04 03:49:09;;;;;;;27.23;23.40;;;6.50;99.90;;;;;;10420264;28;20221;-81
2022/12/04 03:54:16;;;;;;;25.33;21.73;;;6.50;99.90;;;;;;10412094;28;20281;-79
2022/12/04 03:59:23;;;;;;;28.27;25.27;;;6.40;99.90;;;;;;10381048;28;20686;-80
2022/12/04 04:04:30;;;;;;;25.40;22.67;;;6.40;99.90;;;;;;10415397;28;20218;-79
2022/12/04 04:09:38;;;;;;;26.00;22.97;;;6.30;99.90;;;;;;10377206;28;20194;-79
2022/12/04 04:25:42;;;;;;;26.87;23.20;;;6.20;99.90;;;;;;10355542;28;20243;-80
2022/12/04 04:30:44;;;;;;;28.13;23.23;;;6.10;99.90;;;;;;10413886;28;20706;-81
2022/12/04 04:35:52;;;;;;;26.37;22.90;;;6.10;99.90;;;;;;10380437;28;20685;-79
2022/12/04 04:40:58;;;;;;;26.40;23.50;;;6.10;99.90;;;;;;10378014;28;20233;-79
2022/12/04 04:46:05;;;;;;;27.30;23.30;;;6.10;99.90;;;;;;10383030;28;20221;-80
2022/12/04 04:51:10;;;;;;;26.40;23.50;;;6.10;99.90;;;;;;10409934;28;20183;-80
2022/12/04 04:56:13;;;;;;;27.03;22.67;;;6.10;99.90;;;;;;10390947;28;20210;-80
2022/12/04 05:01:17;;;;;;;24.33;21.43;;;6.10;99.90;;;;;;10397700;28;20218;-80
2022/12/04 05:06:21;;;;;;;23.53;19.80;;;6.10;99.90;;;;;;10411254;28;20218;-80
2022/12/04 05:11:23;;;;;;;26.00;20.77;;;6.10;99.90;;;;;;10382482;28;20248;-80
2022/12/04 05:16:25;;;;;;;22.80;19.13;;;6.10;99.90;;;;;;10437037;28;20229;-80
2022/12/04 05:21:28;;;;;;;21.90;19.50;;;6.20;99.90;;;;;;10420686;28;20214;-80
2022/12/04 05:26:31;;;;;;;22.13;18.50;;;6.10;99.90;;;;;;10381009;28;20207;-80
2022/12/04 05:31:33;;;;;;;21.87;18.23;;;6.10;99.90;;;;;;10418383;28;20712;-79
2022/12/04 05:36:36;;;;;;;21.17;18.87;;;6.10;99.90;;;;;;10365214;28;20304;-79
2022/12/04 05:41:38;;;;;;;23.47;20.50;;;6.00;99.90;;;;;;10423603;28;20728;-80
2022/12/04 05:46:40;;;;;;;24.90;20.63;;;6.10;99.90;;;;;;10422419;28;20272;-80
2022/12/04 05:51:43;;;;;;;23.07;19.33;;;6.10;99.90;;;;;;10383924;28;20194;-79
2022/12/04 05:56:46;;;;;;;20.67;18.00;;;6.20;99.90;;;;;;10426301;28;20592;-80
2022/12/04 06:01:48;;;;;;;21.73;17.73;;;6.20;99.90;;;;;;10386228;28;20190;-79
2022/12/04 06:06:52;;;;;;;21.57;17.70;;;6.20;99.90;;;;;;10386283;28;20238;-79
2022/12/04 06:11:57;;;;;;;21.37;17.63;;;6.20;99.90;;;;;;10384006;28;20218;-79
2022/12/04 06:16:59;;;;;;;21.30;17.83;;;6.20;99.90;;;;;;10421712;28;20233;-79
2022/12/04 06:22:03;;;;;;;22.57;19.13;;;6.20;99.90;;;;;;10382057;28;20686;-79
2022/12/04 06:27:05;;;;;;;20.97;18.70;;;6.10;99.90;;;;;;10422101;28;20214;-80
2022/12/04 06:32:07;;;;;;;24.23;21.00;;;6.20;99.90;;;;;;10382944;28;20677;-80
2022/12/04 06:37:10;;;;;;;20.83;18.70;;;6.10;99.90;;;;;;10417826;28;20229;-80
2022/12/04 06:42:12;;;;;;;21.23;18.93;;;6.10;99.90;;;;;;10379712;28;20741;-80
2022/12/04 06:47:14;;;;;;;21.13;18.83;;;6.20;99.90;;;;;;10377678;28;20222;-79
2022/12/04 06:52:18;;;;;;;23.30;19.33;;;6.20;99.90;;;;;;10383064;28;20194;-79
2022/12/04 06:57:20;;;;;;;21.13;18.77;;;6.20;99.90;;;;;;10378984;28;20214;-80
2022/12/04 07:02:22;;;;;;;24.30;20.57;;;6.20;99.90;;;;;;10426458;28;20221;-80
2022/12/04 07:07:25;;;;;;;22.77;20.23;;;6.30;99.90;;;;;;10405320;28;20301;-80
2022/12/04 07:12:27;;;;;;;22.57;19.70;;;6.30;99.90;;;;;;10436700;28;20256;-78
2022/12/04 07:17:29;;;;;;;22.47;18.77;;;6.30;99.90;;;;;;10419389;28;20607;-80
2022/12/04 07:22:33;;;;;;;20.20;18.00;;;6.30;99.90;;;;;;10382285;28;20207;-80
2022/12/04 07:27:35;;;;;;;20.77;18.30;;;6.30;99.90;;;;;;10416174;28;20237;-80
2022/12/04 07:32:37;;;;;;;21.33;18.40;;;6.30;99.90;;;;;;10363711;28;20575;-80
2022/12/04 07:37:41;;;;;;;22.07;18.77;;;6.30;99.90;;;;;;10411314;28;20407;-81
2022/12/04 07:42:43;;;;;;;21.10;18.50;;;6.30;99.90;;;;;;10363455;28;20221;-80
2022/12/04 07:47:45;;;;;;;23.60;20.30;;;6.30;99.90;;;;;;10413793;28;20682;-80
2022/12/04 07:52:48;;;;;;;27.67;22.63;;;6.30;99.90;;;;;;10393014;28;20201;-80
2022/12/04 07:57:50;;;;;;;22.27;19.90;;;6.30;99.90;;;;;;10381163;28;20229;-80
2022/12/04 08:02:52;;;;;;;23.23;20.70;;;6.30;99.90;;;;;;10408097;28;20650;-80
2022/12/04 08:07:56;;;;;;;23.37;20.00;;;6.30;99.90;;;;;;10389437;28;20186;-79
2022/12/04 08:12:58;;;;;;;22.80;20.13;;;6.30;99.90;;;;;;10398692;28;20197;-80
2022/12/04 08:18:00;;;;;;;25.87;22.50;;;6.30;99.90;;;;;;10396093;28;20226;-80
2022/12/04 08:23:03;;;;;;;23.63;20.77;;;6.30;99.90;;;;;;10403235;28;20202;-80
2022/12/04 08:28:06;;;;;;;26.10;20.60;;;6.40;99.90;;;;;;10404451;28;20191;-79
2022/12/04 08:33:08;;;;;;;22.70;20.03;;;6.40;99.90;;;;;;10404788;28;20810;-79
2022/12/04 08:38:11;;;;;;;23.30;20.20;;;6.50;99.90;;;;;;10383258;28;20281;-77
2022/12/04 08:43:13;;;;;;;23.47;20.23;;;6.50;99.90;;;;;;10374132;28;20217;-79
2022/12/04 08:48:16;;;;;;;16.57;14.50;;;6.50;99.90;;;;;;10384795;28;20267;-79
2022/12/04 08:53:19;;;;;;;24.03;20.43;;;6.50;99.90;;;;;;10382166;28;20218;-79
2022/12/04 08:58:21;;;;;;;18.93;16.87;;;6.40;99.90;;;;;;10379694;28;20253;-78
2022/12/04 09:03:23;;;;;;;19.40;17.03;;;6.40;99.90;;;;;;10378090;28;20234;-78
2022/12/04 09:08:27;;;;;;;22.40;18.93;;;6.40;99.90;;;;;;10382867;28;20719;-76
2022/12/04 09:13:29;;;;;;;20.40;18.20;;;6.50;99.90;;;;;;10391733;28;20292;-78
2022/12/04 09:18:31;;;;;;;21.53;17.77;;;6.50;99.90;;;;;;10404185;28;20211;-79
2022/12/04 09:23:35;;;;;;;21.90;19.20;;;6.50;99.90;;;;;;10388687;28;20699;-77
2022/12/04 09:28:37;;;;;;;21.20;18.63;;;6.60;99.90;;;;;;10375293;28;20218;-78
2022/12/04 09:33:40;;;;;;;22.20;18.73;;;6.60;99.90;;;;;;10402781;28;20249;-80
2022/12/04 09:38:44;;;;;;;21.13;18.57;;;6.60;99.90;;;;;;10388759;28;20590;-76
2022/12/04 09:43:51;;;;;;;21.73;18.70;;;6.60;99.90;;;;;;10374226;28;20229;-76
2022/12/04 09:48:57;;;;;;;24.03;20.10;;;6.60;99.90;;;;;;10402610;28;20248;-78
2022/12/04 09:54:07;;;;;;;21.27;19.00;;;6.60;99.90;;;;;;10407572;28;20214;-77
2022/12/04 09:59:14;;;;;;;20.77;18.50;;;6.70;99.90;;;;;;10414931;28;20202;-78
2022/12/04 10:04:18;;;;;;;23.20;20.07;;;6.70;99.90;;;;;;10415084;28;20256;-80
2022/12/04 10:09:26;;;;;;;22.90;20.43;;;6.70;99.90;;;;;;10386830;28;20710;-80
2022/12/04 10:14:44;;;;;;;21.73;19.40;;;6.70;99.90;;;;;;10424455;28;20226;-78
2022/12/04 10:19:56;;;;;;;18.67;15.90;;;6.80;99.90;;;;;;10416371;28;20221;-78
2022/12/04 10:25:05;;;;;;;23.53;21.03;;;6.80;99.90;;;;;;10386757;28;20219;-77
2022/12/04 10:30:16;;;;;;;26.40;23.53;;;6.80;99.90;;;;;;10412089;28;20284;-78
2022/12/04 10:35:21;;;;;;;24.30;21.70;;;6.80;99.90;;;;;;10409571;28;20207;-78
2022/12/04 10:40:29;;;;;;;27.63;23.13;;;6.80;99.90;;;;;;10424208;28;20605;-78
2022/12/04 10:45:31;;;;;;;24.27;21.43;;;6.70;99.90;;;;;;10415238;28;20222;-80
2022/12/04 10:50:34;;;;;;;24.53;21.93;;;6.70;99.90;;;;;;10427473;28;20251;-80
2022/12/04 10:55:38;;;;;;;24.13;21.50;;;6.70;99.90;;;;;;10420101;28;20320;-78
2022/12/04 11:00:40;;;;;;;27.90;23.00;;;6.70;99.90;;;;;;10390380;28;20238;-80
2022/12/04 11:05:54;;;;;;;26.13;22.47;;;6.60;99.90;;;;;;10408025;28;20223;-80
2022/12/04 11:11:00;;;;;;;27.90;23.23;;;6.60;99.90;;;;;;10388279;28;20190;-79
2022/12/04 11:16:02;;;;;;;28.40;23.13;;;6.70;99.90;;;;;;10414119;28;20253;-78
2022/12/04 11:21:07;;;;;;;24.40;20.87;;;6.70;99.90;;;;;;10396482;28;20236;-80
2022/12/04 11:26:11;;;;;;;25.70;21.57;;;6.70;99.90;;;;;;10382003;28;20268;-78
2022/12/04 11:31:18;;;;;;;25.97;21.83;;;6.70;99.90;;;;;;10390291;28;20190;-78
2022/12/04 11:36:24;;;;;;;23.27;20.20;;;6.80;99.90;;;;;;10380443;28;20245;-79
2022/12/04 11:41:29;;;;;;;23.40;20.60;;;6.80;99.90;;;;;;10406955;28;20214;-78
2022/12/04 11:46:34;;;;;;;23.03;20.07;;;6.80;99.90;;;;;;10380967;28;20741;-78
2022/12/04 11:51:47;;;;;;;21.60;19.30;;;6.80;99.90;;;;;;10407404;28;20186;-78
2022/12/04 11:56:59;;;;;;;23.20;19.57;;;6.80;99.90;;;;;;10410303;28;20274;-79
2022/12/04 12:02:15;;;;;;;20.87;18.03;;;6.70;99.90;;;;;;10401265;28;20300;-78
2022/12/04 12:07:31;;;;;;;20.83;17.43;;;6.70;99.90;;;;;;10412368;28;20237;-81
2022/12/04 12:12:48;;;;;;;21.93;19.47;;;6.70;99.90;;;;;;10402921;28;20206;-82
2022/12/04 12:18:06;;;;;;;21.43;18.60;;;6.70;99.90;;;;;;10418708;28;20571;-79
2022/12/04 12:23:23;;;;;;;24.50;19.03;;;6.80;99.90;;;;;;10376464;28;20277;-82
2022/12/04 12:28:56;;;;;;;20.37;18.17;;;6.80;99.90;;;;;;10409695;28;20201;-79
2022/12/04 12:34:03;;;;;;;22.43;18.87;;;6.90;99.90;;;;;;10379540;28;20302;-80
2022/12/04 12:39:13;;;;;;;21.57;18.90;;;6.90;99.90;;;;;;10406574;28;20214;-76
2022/12/04 12:44:23;;;;;;;21.40;19.10;;;7.00;99.90;;;;;;10384486;28;20348;-78
2022/12/04 12:49:29;;;;;;;26.03;21.20;;;7.00;99.90;;;;;;10379272;28;20186;-79
2022/12/04 12:54:40;;;;;;;22.50;20.03;;;7.00;99.90;;;;;;10389563;28;20602;-78
2022/12/04 12:59:48;;;;;;;21.60;19.33;;;7.00;99.90;;;;;;10383491;28;20218;-78
2022/12/04 13:04:53;;;;;;;20.13;17.63;;;7.00;99.90;;;;;;10405388;28;20245;-82
2022/12/04 13:10:03;;;;;;;22.77;20.17;;;6.90;99.90;;;;;;10374146;28;20190;-80
2022/12/04 13:15:14;;;;;;;24.30;20.00;;;6.90;99.90;;;;;;10393776;28;20234;-81
2022/12/04 13:20:22;;;;;;;24.73;20.90;;;7.00;99.90;;;;;;10389186;28;20221;-79
2022/12/04 13:25:40;;;;;;;23.27;19.93;;;7.00;99.90;;;;;;10413846;28;20297;-80
2022/12/04 13:30:51;;;;;;;24.60;21.60;;;7.00;99.90;;;;;;10409142;28;20700;-82
2022/12/04 13:36:21;;;;;;;23.70;19.50;;;7.00;99.90;;;;;;10418919;28;20681;-81
2022/12/04 13:41:24;;;;;;;21.97;18.93;;;7.00;99.90;;;;;;10422009;28;20249;-81
2022/12/04 13:46:32;;;;;;;23.03;20.50;;;6.90;99.90;;;;;;10419265;28;20641;-79
2022/12/04 13:51:39;;;;;;;25.70;20.63;;;6.90;99.90;;;;;;10415455;28;20225;-80
2022/12/04 13:56:43;;;;;;;23.47;20.93;;;6.90;99.90;;;;;;10404008;28;20301;-80
2022/12/04 14:01:49;;;;;;;23.43;20.90;;;6.90;99.90;;;;;;10382790;28;20206;-81
2022/12/04 14:06:53;;;;;;;21.63;18.57;;;6.80;99.90;;;;;;10382785;28;20709;-79
2022/12/04 14:11:59;;;;;;;20.20;17.67;;;6.90;99.90;;;;;;10400636;28;20200;-78
2022/12/04 14:17:05;;;;;;;21.33;18.10;;;6.80;99.90;;;;;;10396775;28;20331;-80
2022/12/04 14:22:26;;;;;;;20.53;17.93;;;6.90;99.90;;;;;;10403568;28;20215;-80
2022/12/04 14:27:35;;;;;;;20.97;17.30;;;6.90;99.90;;;;;;10399796;28;20236;-79
2022/12/04 14:32:42;;;;;;;19.77;17.50;;;6.90;99.90;;;;;;10398007;28;20187;-80
2022/12/04 14:37:52;;;;;;;19.93;17.43;;;6.90;99.90;;;;;;10393857;28;20496;-79
2022/12/04 14:42:55;;;;;;;20.63;18.40;;;6.90;99.90;;;;;;10403354;28;20615;-79
2022/12/04 14:48:21;;;;;;;23.40;18.80;;;6.90;99.90;;;;;;10396534;28;20199;-79
2022/12/04 14:53:34;;;;;;;20.90;17.10;;;7.00;99.90;;;;;;10396214;28;20210;-79
2022/12/04 14:58:38;;;;;;;20.30;18.10;;;7.00;99.90;;;;;;10391059;28;20294;-79
2022/12/04 15:03:44;;;;;;;21.77;17.43;;;7.00;99.90;;;;;;10398587;28;20725;-79
2022/12/04 15:08:51;;;;;;;18.63;16.63;;;7.00;99.90;;;;;;10415194;28;20190;-78
2022/12/04 15:13:53;;;;;;;19.37;17.33;;;7.00;99.90;;;;;;10406905;28;20229;-79
2022/12/04 15:18:58;;;;;;;19.77;17.03;;;7.00;99.90;;;;;;10414529;28;20701;-79
2022/12/04 15:24:00;;;;;;;21.83;19.27;;;6.90;99.90;;;;;;10393257;28;20214;-79
2022/12/04 15:29:06;;;;;;;23.00;19.10;;;6.90;99.90;;;;;;10400312;28;20247;-79
2022/12/04 15:34:15;;;;;;;22.17;19.87;;;6.90;99.90;;;;;;10392501;28;20453;-79
2022/12/04 15:39:19;;;;;;;23.90;20.00;;;7.00;99.90;;;;;;10403005;28;20625;-78
2022/12/04 15:44:24;;;;;;;27.33;24.23;;;6.90;99.90;;;;;;10412954;28;20225;-79
2022/12/04 15:49:29;;;;;;;25.10;21.27;;;6.90;99.90;;;;;;10415294;28;20198;-79
2022/12/04 15:54:31;;;;;;;28.03;21.07;;;6.90;99.90;;;;;;10388182;28;20214;-78
2022/12/04 15:59:35;;;;;;;26.57;20.43;;;6.90;99.90;;;;;;10398874;28;20708;-79
2022/12/04 16:04:38;;;;;;;21.10;17.47;;;6.90;99.90;;;;;;10390314;28;20270;-78
2022/12/04 16:09:55;;;;;;;23.07;18.73;;;6.90;99.90;;;;;;10396703;28;20194;-79
2022/12/04 16:14:57;;;;;;;21.53;17.53;;;6.90;99.90;;;;;;10414707;28;20225;-78
2022/12/04 16:20:06;;;;;;;21.23;18.63;;;6.90;99.90;;;;;;10389980;28;20218;-79
2022/12/04 16:25:10;;;;;;;21.97;18.20;;;6.90;99.90;;;;;;10373914;28;20237;-79
2022/12/04 16:30:14;;;;;;;25.70;20.33;;;6.90;99.90;;;;;;10375033;28;20194;-79
2022/12/04 16:35:17;;;;;;;25.07;20.97;;;6.90;99.90;;;;;;10387923;28;20257;-80
2022/12/04 16:40:19;;;;;;;25.33;20.67;;;7.00;99.90;;;;;;10396912;28;20233;-80
2022/12/04 16:45:24;;;;;;;24.43;20.30;;;7.00;99.90;;;;;;10383602;28;20218;-79
2022/12/04 16:50:28;;;;;;;27.10;20.33;;;7.00;99.90;;;;;;10376834;28;20284;-79
2022/12/04 16:55:33;;;;;;;31.33;22.13;;;7.00;99.90;;;;;;10401892;28;20221;-79
2022/12/04 17:00:36;;;;;;;23.53;19.90;;;7.00;99.90;;;;;;10387670;28;20261;-79
2022/12/04 17:05:39;;;;;;;25.87;21.03;;;7.00;99.90;;;;;;10397338;28;20301;-79
2022/12/04 17:10:41;;;;;;;27.03;20.57;;;6.90;99.90;;;;;;10399167;28;20602;-79
2022/12/04 17:15:44;;;;;;;29.00;22.23;;;6.90;99.90;;;;;;10406738;28;20240;-79
2022/12/04 17:20:47;;;;;;;30.97;22.80;;;6.90;99.90;;;;;;10401043;28;20340;-79
2022/12/04 17:25:49;;;;;;;28.50;21.03;;;6.90;99.90;;;;;;10406441;28;20249;-79
2022/12/04 17:30:51;;;;;;;33.43;22.33;;;6.90;99.90;;;;;;10401032;28;20198;-78
2022/12/04 17:35:54;;;;;;;31.77;23.37;;;6.90;99.90;;;;;;10424368;28;20316;-78
2022/12/04 17:41:00;;;;;;;33.53;22.77;;;6.90;99.90;;;;;;10414152;28;20267;-78
2022/12/04 17:46:07;;;;;;;32.87;24.27;;;6.90;99.90;;;;;;10417512;28;20275;-78
2022/12/04 17:51:13;;;;;;;36.63;23.00;;;6.90;99.90;;;;;;10377858;28;20190;-79
2022/12/04 17:56:18;;;;;;;34.10;24.43;;;6.90;99.90;;;;;;10394163;28;20691;-78
2022/12/04 18:01:22;;;;;;;33.30;24.33;;;6.90;99.90;;;;;;10396968;28;20228;-79
2022/12/04 18:06:27;;;;;;;39.07;24.93;;;6.80;99.90;;;;;;10395210;28;20222;-78
2022/12/04 18:11:31;;;;;;;38.10;25.73;;;6.80;99.90;;;;;;10397492;28;20194;-78
2022/12/04 18:16:36;;;;;;;38.63;25.53;;;6.70;99.90;;;;;;10403877;28;20693;-78
2022/12/04 18:21:39;;;;;;;32.83;23.47;;;6.70;99.90;;;;;;10401387;28;20221;-78
2022/12/04 18:26:43;;;;;;;31.07;23.73;;;6.60;99.90;;;;;;10396680;28;20214;-78
2022/12/04 18:31:46;;;;;;;34.90;24.43;;;6.50;99.90;;;;;;10381104;28;20236;-79
2022/12/04 18:36:49;;;;;;;28.87;20.27;;;6.40;99.90;;;;;;10397624;28;20614;-83
2022/12/04 18:41:56;;;;;;;38.23;31.10;;;6.40;99.90;;;;;;10415696;28;20213;-80
2022/12/04 18:46:58;;;;;;;28.87;19.40;;;6.40;99.90;;;;;;10399856;28;20241;-82
2022/12/04 18:52:01;;;;;;;27.90;19.87;;;6.50;99.90;;;;;;10387447;28;20217;-83
2022/12/04 18:57:05;;;;;;;27.00;21.00;;;6.50;99.90;;;;;;10404509;28;20641;-82
2022/12/04 19:02:10;;;;;;;37.33;23.03;;;6.60;99.90;;;;;;10356818;28;20618;-81
2022/12/04 19:07:15;;;;;;;34.27;23.07;;;6.60;99.90;;;;;;10377832;28;20232;-81
2022/12/04 19:12:17;;;;;;;34.40;23.73;;;6.60;99.90;;;;;;10396998;28;20576;-81
2022/12/04 19:17:19;;;;;;;31.37;19.40;;;6.70;99.90;;;;;;10360649;28;20317;-81
2022/12/04 19:22:23;;;;;;;36.17;23.50;;;6.70;99.90;;;;;;10392654;28;20225;-82
2022/12/04 19:27:26;;;;;;;34.47;22.30;;;;;;;;;;10413890;28;20226;-82
2022/12/04 19:32:28;;;;;;;41.53;25.90;;;6.50;99.90;;;;;;10393130;28;20281;-81
2022/12/04 19:37:32;;;;;;;36.93;26.17;;;6.70;99.90;;;;;;10378278;28;20292;-79
2022/12/04 19:42:34;;;;;;;40.20;25.23;;;6.70;99.90;;;;;;10392770;28;20220;-81
2022/12/04 19:47:36;;;;;;;34.50;25.80;;;6.80;99.90;;;;;;10392256;28;20677;-80
2022/12/04 19:52:40;;;;;;;36.40;26.63;;;6.80;99.90;;;;;;10388670;28;20266;-82
2022/12/04 19:57:43;;;;;;;41.30;28.50;;;6.80;99.90;;;;;;10391963;28;20518;-80
2022/12/04 20:02:47;;;;;;;35.20;25.73;;;6.80;99.90;;;;;;10404779;28;20213;-82
2022/12/04 20:07:57;;;;;;;34.53;25.67;;;6.80;99.90;;;;;;10380824;28;20285;-80
2022/12/04 20:12:59;;;;;;;35.97;24.20;;;6.80;99.90;;;;;;10384864;28;20195;-81
2022/12/04 20:18:04;;;;;;;35.70;25.03;;;6.80;99.90;;;;;;10376144;28;20246;-82
2022/12/04 20:23:15;;;;;;;35.80;26.20;;;6.80;99.90;;;;;;10396375;28;20314;-83
2022/12/04 20:28:18;;;;;;;36.03;26.90;;;6.80;99.90;;;;;;10400219;28;20569;-83
2022/12/04 20:33:24;;;;;;;33.47;26.70;;;6.80;99.90;;;;;;10412263;28;20214;-84
2022/12/04 20:38:30;;;;;;;36.67;26.27;;;6.90;99.90;;;;;;10380999;28;20206;-83
2022/12/04 20:43:49;;;;;;;32.30;24.30;;;6.80;99.90;;;;;;10425091;28;20236;-81
2022/12/04 20:48:53;;;;;;;33.03;24.07;;;6.90;99.90;;;;;;10439719;28;20204;-84
2022/12/04 20:53:58;;;;;;;37.40;26.77;;;6.80;99.90;;;;;;10437095;28;20225;-83
2022/12/04 20:59:02;;;;;;;35.30;25.60;;;6.90;99.90;;;;;;10414843;28;20202;-84
2022/12/04 21:04:07;;;;;;;37.77;26.60;;;6.90;99.90;;;;;;10411314;28;20226;-84
2022/12/04 21:09:21;;;;;;;37.00;26.77;;;6.90;99.90;;;;;;10395482;28;20195;-84
2022/12/04 21:19:47;;;;;;;35.13;25.87;;;6.90;99.90;;;;;;10557052;28;20192;-85
2022/12/04 21:24:51;;;;;;;33.07;23.70;;;6.90;99.90;;;;;;10555428;28;20696;-83
2022/12/04 21:29:54;;;;;;;31.67;24.17;;;6.90;99.90;;;;;;10506182;28;20200;-80
2022/12/04 21:34:56;;;;;;;31.47;23.83;;;6.90;99.90;;;;;;10500937;28;20223;-82
2022/12/04 21:40:01;;;;;;;29.80;22.70;;;6.90;99.90;;;;;;10543701;28;20208;-83
2022/12/04 21:45:06;;;;;;;35.60;23.40;;;6.90;99.90;;;;;;10482408;28;20244;-82
2022/12/04 21:50:12;;;;;;;30.67;23.20;;;6.90;99.90;;;;;;10504711;28;20228;-82
2022/12/04 22:08:43;;;;;;;30.70;22.77;;;6.90;99.90;;;;;;10239483;29;20237;-78
2022/12/04 22:20:39;;;;;;;23.00;17.93;;;6.70;99.90;;;;;;10117898;29;20219;-81
2022/12/04 22:46:39;;;;;;;26.23;17.10;;;6.70;99.90;;;;;;10282896;28;20239;-80
2022/12/04 22:51:58;;;;;;;24.60;17.37;;;6.70;99.90;;;;;;10307204;28;20197;-78
2022/12/04 23:03:34;;;;;;;22.90;17.70;;;6.70;99.90;;;;;;10379418;28;20272;-82
2022/12/04 23:08:46;;;;;;;22.97;17.93;;;6.70;99.90;;;;;;10036028;29;20287;-81
2022/12/04 23:27:41;;;;;;;24.33;18.27;;;6.80;99.90;;;;;;10248946;28;20222;-84
2022/12/04 23:32:50;;;;;;;21.83;18.03;;;6.80;99.90;;;;;;10409072;28;20251;-84
2022/12/04 23:38:05;;;;;;;22.10;17.30;;;6.80;99.90;;;;;;10379719;28;20237;-81
2022/12/04 23:43:31;;;;;;;22.40;17.37;;;6.80;99.90;;;;;;10398472;28;20219;-83
2022/12/04 23:48:35;;;;;;;21.60;17.50;;;6.80;99.90;;;;;;10399334;28;20290;-83
2022/12/04 23:53:37;;;;;;;23.30;17.57;;;6.80;99.90;;;;;;10409083;28;20218;-82
2022/12/04 23:58:40;;;;;;;21.67;18.40;;;6.80;99.90;;;;;;10357908;28;20679;-83
